createdAt,value
2023-04-20T00:01:18.494Z,12.37
2023-04-20T00:03:45.356Z,12.19
2023-04-20T00:06:12.287Z,12.26
2023-04-20T00:08:38.859Z,12.29
2023-04-20T00:11:11.618Z,12.33
2023-04-20T00:13:38.209Z,12.27
2023-04-20T00:16:07.965Z,12.27
2023-04-20T00:18:34.523Z,12.04
2023-04-20T00:21:16.875Z,11.90
2023-04-20T00:23:58.543Z,11.87
2023-04-20T00:26:25.523Z,12.02
2023-04-20T00:28:52.643Z,12.05
2023-04-20T00:31:20.021Z,12.09
2023-04-20T00:36:21.989Z,12.10
2023-04-20T00:38:56.980Z,12.11
2023-04-20T00:41:23.611Z,12.15
2023-04-20T00:43:53.840Z,12.08
2023-04-20T00:46:21.552Z,12.12
2023-04-20T00:51:38.740Z,12.08
2023-04-20T00:54:18.759Z,11.99
2023-04-20T00:56:45.595Z,11.88
2023-04-20T00:59:12.528Z,11.92
2023-04-20T01:01:39.344Z,11.83
2023-04-20T01:04:07.914Z,11.91
2023-04-20T01:06:34.590Z,11.73
2023-04-20T01:11:36.659Z,11.73
2023-04-20T01:14:03.220Z,11.61
2023-04-20T01:16:30.753Z,11.45
2023-04-20T01:18:57.569Z,11.49
2023-04-20T01:21:24.182Z,11.45
2023-04-20T01:28:15.675Z,11.43
2023-04-20T01:30:42.352Z,11.30
2023-04-20T01:33:09.014Z,11.41
2023-04-20T01:35:36.364Z,11.32
2023-04-20T01:38:03.102Z,11.27
2023-04-20T01:40:35.217Z,11.29
2023-04-20T01:43:01.772Z,11.32
2023-04-20T01:45:28.351Z,11.40
2023-04-20T01:47:55.017Z,11.38
2023-04-20T01:50:21.596Z,11.33
2023-04-20T01:52:48.134Z,11.35
2023-04-20T01:55:20.293Z,11.40
2023-04-20T01:57:46.927Z,11.48
2023-04-20T02:00:13.873Z,11.52
2023-04-20T02:02:40.615Z,11.48
2023-04-20T02:05:32.057Z,11.27
2023-04-20T02:08:11.364Z,11.08
2023-04-20T02:10:37.975Z,10.94
2023-04-20T02:13:04.538Z,10.77
2023-04-20T02:15:31.121Z,10.62
2023-04-20T02:17:58.109Z,10.71
2023-04-20T02:20:25.000Z,10.96
2023-04-20T02:22:51.599Z,10.85
2023-04-20T02:25:30.115Z,11.01
2023-04-20T02:27:57.049Z,11.09
2023-04-20T02:30:23.656Z,11.15
2023-04-20T02:32:50.245Z,11.16
2023-04-20T02:35:32.446Z,11.15
2023-04-20T02:38:11.116Z,11.12
2023-04-20T02:40:37.814Z,11.12
2023-04-20T02:43:04.478Z,11.10
2023-04-20T02:45:32.447Z,11.09
2023-04-20T02:47:59.053Z,11.08
2023-04-20T02:50:26.558Z,11.07
2023-04-20T02:53:08.509Z,10.98
2023-04-20T02:55:35.191Z,10.99
2023-04-20T02:58:01.796Z,11.07
2023-04-20T03:00:28.391Z,11.14
2023-04-20T03:03:07.343Z,11.20
2023-04-20T03:06:05.188Z,11.20
2023-04-20T03:08:37.618Z,11.10
2023-04-20T03:11:04.153Z,11.10
2023-04-20T03:13:30.934Z,10.91
2023-04-20T03:15:57.776Z,11.01
2023-04-20T03:18:24.408Z,10.97
2023-04-20T03:20:51.078Z,10.92
2023-04-20T03:23:17.624Z,11.06
2023-04-20T03:25:44.764Z,11.04
2023-04-20T03:28:11.304Z,11.23
2023-04-20T03:30:37.880Z,11.31
2023-04-20T03:33:04.564Z,11.39
2023-04-20T03:35:31.575Z,11.40
2023-04-20T03:37:58.169Z,11.47
2023-04-20T03:40:24.947Z,11.51
2023-04-20T03:42:51.555Z,11.54
2023-04-20T03:45:18.089Z,11.41
2023-04-20T03:47:44.880Z,11.16
2023-04-20T03:50:11.521Z,11.36
2023-04-20T03:52:43.329Z,11.42
2023-04-20T03:55:10.023Z,11.47
2023-04-20T03:57:37.507Z,11.46
2023-04-20T04:00:04.814Z,11.61
2023-04-20T04:02:52.780Z,11.64
2023-04-20T04:05:38.379Z,11.66
2023-04-20T04:08:20.237Z,11.76
2023-04-20T04:25:10.461Z,11.83
2023-04-20T04:27:37.669Z,11.70
2023-04-20T04:30:05.281Z,11.80
2023-04-20T04:32:34.594Z,11.70
2023-04-20T04:35:01.439Z,11.89
2023-04-20T04:37:36.784Z,11.97
2023-04-20T04:40:16.261Z,11.99
2023-04-20T04:42:55.701Z,11.88
2023-04-20T04:45:25.318Z,12.04
2023-04-20T04:47:54.037Z,11.97
2023-04-20T04:50:33.480Z,11.83
2023-04-20T04:53:00.047Z,11.89
2023-04-20T04:55:26.662Z,12.12
2023-04-20T04:57:53.239Z,12.26
2023-04-20T05:00:20.230Z,12.35
2023-04-20T05:02:46.923Z,12.44
2023-04-20T05:05:13.753Z,12.27
2023-04-20T05:07:40.458Z,12.41
2023-04-20T05:10:08.134Z,12.56
2023-04-20T05:12:34.765Z,12.71
2023-04-20T05:15:01.440Z,12.64
2023-04-20T05:17:28.146Z,12.58
2023-04-20T05:19:54.818Z,12.63
2023-04-20T05:22:21.403Z,12.85
2023-04-20T05:24:47.981Z,12.96
2023-04-20T05:27:14.671Z,12.65
2023-04-20T05:29:41.225Z,12.93
2023-04-20T05:32:08.285Z,12.92
2023-04-20T05:34:35.046Z,12.86
2023-04-20T05:37:04.647Z,13.03
2023-04-20T05:39:34.697Z,13.31
2023-04-20T05:42:01.770Z,13.46
2023-04-20T05:44:28.328Z,13.20
2023-04-20T05:46:54.917Z,12.97
2023-04-20T05:49:21.704Z,13.20
2023-04-20T05:51:48.303Z,12.98
2023-04-20T05:54:14.878Z,13.23
2023-04-20T05:56:41.493Z,13.10
2023-04-20T05:59:08.832Z,13.06
2023-04-20T06:01:35.584Z,12.49
2023-04-20T06:04:17.580Z,12.78
2023-04-20T06:06:44.549Z,12.77
2023-04-20T06:09:11.381Z,12.59
2023-04-20T06:11:37.965Z,13.06
2023-04-20T06:14:04.519Z,13.15
2023-04-20T06:16:31.205Z,13.28
2023-04-20T06:18:57.891Z,13.78
2023-04-20T06:21:24.675Z,14.19
2023-04-20T06:23:51.273Z,14.40
2023-04-20T06:26:17.845Z,14.16
2023-04-20T06:31:20.532Z,14.66
2023-04-20T06:33:47.349Z,14.68
2023-04-20T06:36:14.440Z,14.83
2023-04-20T06:38:41.153Z,15.63
2023-04-20T06:41:07.744Z,15.73
2023-04-20T06:47:01.116Z,17.08
2023-04-20T06:49:27.772Z,16.58
2023-04-20T06:51:54.511Z,16.95
2023-04-20T06:54:21.137Z,16.73
2023-04-20T06:56:48.429Z,15.73
2023-04-20T06:59:18.229Z,16.54
2023-04-20T07:01:45.157Z,16.53
2023-04-20T07:04:12.163Z,16.07
2023-04-20T07:06:39.171Z,16.70
2023-04-20T07:09:06.052Z,16.89
2023-04-20T07:11:32.635Z,17.07
2023-04-20T07:13:59.239Z,16.63
2023-04-20T07:16:25.979Z,17.47
2023-04-20T07:18:52.574Z,17.04
2023-04-20T07:21:19.132Z,17.23
2023-04-20T07:23:45.755Z,17.51
2023-04-20T07:26:12.394Z,17.18
2023-04-20T07:28:38.956Z,16.64
2023-04-20T07:31:05.995Z,17.15
2023-04-20T07:33:40.012Z,17.38
2023-04-20T07:36:07.118Z,17.48
2023-04-20T07:38:33.672Z,17.38
2023-04-20T07:41:00.402Z,17.71
2023-04-20T07:43:52.142Z,18.16
2023-04-20T07:46:37.346Z,17.91
2023-04-20T07:49:04.236Z,17.92
2023-04-20T07:51:32.376Z,18.59
2023-04-20T07:53:58.943Z,18.24
2023-04-20T07:56:26.081Z,18.57
2023-04-20T07:58:52.666Z,18.07
2023-04-20T08:01:23.721Z,17.06
2023-04-20T08:03:50.545Z,17.69
2023-04-20T08:06:17.658Z,17.47
2023-04-20T08:08:44.284Z,18.37
2023-04-20T08:11:12.574Z,17.56
2023-04-20T08:13:40.091Z,17.65
2023-04-20T08:18:55.205Z,18.17
2023-04-20T08:21:25.460Z,18.56
2023-04-20T08:23:52.764Z,18.97
2023-04-20T08:26:19.331Z,18.99
2023-04-20T08:28:45.876Z,18.44
2023-04-20T08:31:55.781Z,19.01
2023-04-20T08:35:09.495Z,18.66
2023-04-20T08:37:48.237Z,18.99
2023-04-20T08:40:17.120Z,19.02
2023-04-20T08:42:43.714Z,19.37
2023-04-20T08:45:10.405Z,18.84
2023-04-20T08:47:37.247Z,18.96
2023-04-20T08:50:04.537Z,18.77
2023-04-20T08:52:32.628Z,19.08
2023-04-20T08:54:59.205Z,18.77
2023-04-20T08:57:26.306Z,19.13
2023-04-20T08:59:53.366Z,19.35
2023-04-20T09:02:20.156Z,19.53
2023-04-20T09:04:49.321Z,19.75
2023-04-20T09:07:21.056Z,20.90
2023-04-20T09:09:57.995Z,22.44
2023-04-20T09:12:25.090Z,22.07
2023-04-20T09:14:52.453Z,21.41
2023-04-20T09:17:32.094Z,21.72
2023-04-20T09:19:58.647Z,20.86
2023-04-20T09:22:38.531Z,20.54
2023-04-20T09:25:17.771Z,20.50
2023-04-20T09:27:55.916Z,19.81
2023-04-20T09:30:22.827Z,20.60
2023-04-20T09:32:49.581Z,20.70
2023-04-20T09:35:23.961Z,20.21
2023-04-20T09:38:18.113Z,20.48
2023-04-20T09:41:12.555Z,20.31
2023-04-20T09:43:40.815Z,20.32
2023-04-20T09:46:07.901Z,20.18
2023-04-20T09:48:35.595Z,20.54
2023-04-20T09:51:03.201Z,19.67
2023-04-20T09:53:30.841Z,19.08
2023-04-20T09:56:17.561Z,19.60
2023-04-20T09:58:46.676Z,19.79
2023-04-20T10:01:13.769Z,19.23
2023-04-20T10:03:44.182Z,19.85
2023-04-20T10:06:25.321Z,19.72
2023-04-20T10:08:53.157Z,19.83
2023-04-20T10:13:55.913Z,20.11
2023-04-20T10:16:23.171Z,19.15
2023-04-20T10:19:01.899Z,20.01
2023-04-20T10:21:30.028Z,19.68
2023-04-20T10:23:58.916Z,19.34
2023-04-20T10:26:45.494Z,18.92
2023-04-20T10:29:36.989Z,19.28
2023-04-20T10:32:08.586Z,19.46
2023-04-20T10:34:36.868Z,19.43
2023-04-20T10:37:11.121Z,19.73
2023-04-20T10:39:45.124Z,19.90
2023-04-20T10:42:11.874Z,19.63
2023-04-20T10:44:52.024Z,19.97
2023-04-20T10:47:27.818Z,20.57
2023-04-20T10:49:54.416Z,20.26
2023-04-20T10:52:37.911Z,19.98
2023-04-20T10:55:06.958Z,20.31
2023-04-20T10:57:33.949Z,20.65
2023-04-20T11:00:00.591Z,21.33
2023-04-20T11:02:28.305Z,20.93
2023-04-20T11:05:00.911Z,20.88
2023-04-20T11:07:27.662Z,21.57
2023-04-20T11:09:58.000Z,20.63
2023-04-20T11:12:24.614Z,20.26
2023-04-20T11:14:53.485Z,20.09
2023-04-20T11:17:20.740Z,20.06
2023-04-20T11:19:47.427Z,20.55
2023-04-20T11:22:23.415Z,20.39
2023-04-20T11:24:50.325Z,20.58
2023-04-20T11:27:23.843Z,19.96
2023-04-20T11:30:05.454Z,20.02
2023-04-20T11:32:38.377Z,20.68
2023-04-20T11:35:09.272Z,20.77
2023-04-20T11:37:57.623Z,20.55
2023-04-20T11:40:24.614Z,21.04
2023-04-20T11:42:52.316Z,21.46
2023-04-20T11:45:18.900Z,21.25
2023-04-20T11:47:47.347Z,21.35
2023-04-20T11:50:14.425Z,21.36
2023-04-20T11:52:40.985Z,21.13
2023-04-20T11:55:08.000Z,21.21
2023-04-20T11:57:34.791Z,20.88
2023-04-20T12:00:01.429Z,20.92
2023-04-20T12:02:28.200Z,21.35
2023-04-20T12:04:55.012Z,21.86
2023-04-20T12:07:22.406Z,21.60
2023-04-20T12:09:49.466Z,21.48
2023-04-20T12:12:16.019Z,21.22
2023-04-20T12:14:42.558Z,21.29
2023-04-20T12:17:09.351Z,21.39
2023-04-20T12:19:35.902Z,21.59
2023-04-20T12:22:02.706Z,20.94
2023-04-20T12:24:29.635Z,21.35
2023-04-20T12:26:58.201Z,21.08
2023-04-20T12:29:24.910Z,21.24
2023-04-20T12:31:51.575Z,21.14
2023-04-20T12:34:18.629Z,21.45
2023-04-20T12:36:45.541Z,20.35
2023-04-20T12:39:12.135Z,21.29
2023-04-20T12:41:38.674Z,21.48
2023-04-20T12:44:07.610Z,21.43
2023-04-20T12:46:35.380Z,20.77
2023-04-20T12:49:02.192Z,21.22
2023-04-20T12:51:28.784Z,21.25
2023-04-20T12:53:55.497Z,21.58
2023-04-20T12:56:22.087Z,21.71
2023-04-20T12:58:49.060Z,21.15
2023-04-20T13:01:17.327Z,20.60
2023-04-20T13:03:46.314Z,21.27
2023-04-20T13:06:14.422Z,21.40
2023-04-20T13:08:41.385Z,20.97
2023-04-20T13:11:08.540Z,21.15
2023-04-20T13:13:35.090Z,21.35
2023-04-20T13:16:02.044Z,21.14
2023-04-20T13:18:28.762Z,21.01
2023-04-20T13:20:55.413Z,21.57
2023-04-20T13:23:21.954Z,21.54
2023-04-20T13:25:48.646Z,21.22
2023-04-20T13:28:15.562Z,20.91
2023-04-20T13:30:42.166Z,20.80
2023-04-20T13:33:09.076Z,20.93
2023-04-20T13:35:36.393Z,20.68
2023-04-20T13:38:04.989Z,21.31
2023-04-20T13:40:31.638Z,21.82
2023-04-20T13:42:58.425Z,21.90
2023-04-20T13:45:25.364Z,21.96
2023-04-20T13:47:51.985Z,22.26
2023-04-20T13:50:18.648Z,21.41
2023-04-20T13:52:45.297Z,21.78
2023-04-20T13:55:11.918Z,21.81
2023-04-20T13:57:38.475Z,22.34
2023-04-20T14:00:05.822Z,21.77
2023-04-20T14:02:32.999Z,21.58
2023-04-20T14:04:59.683Z,21.92
2023-04-20T14:07:26.767Z,22.02
2023-04-20T14:09:56.431Z,21.65
2023-04-20T14:12:23.205Z,21.86
2023-04-20T14:14:49.818Z,21.83
2023-04-20T14:17:16.615Z,21.59
2023-04-20T14:19:43.144Z,21.57
2023-04-20T14:22:09.727Z,21.79
2023-04-20T14:24:36.374Z,21.25
2023-04-20T14:27:03.575Z,21.62
2023-04-20T14:29:30.298Z,21.39
2023-04-20T14:31:56.976Z,21.41
2023-04-20T14:34:23.607Z,21.26
2023-04-20T14:36:50.358Z,21.18
2023-04-20T14:39:20.336Z,21.42
2023-04-20T14:41:47.010Z,21.67
2023-04-20T14:44:13.591Z,21.65
2023-04-20T14:46:42.453Z,21.58
2023-04-20T14:49:10.247Z,21.49
2023-04-20T14:51:36.817Z,21.37
2023-04-20T14:54:03.680Z,21.39
2023-04-20T14:56:30.426Z,21.12
2023-04-20T14:58:59.469Z,21.10
2023-04-20T15:01:26.220Z,20.96
2023-04-20T15:03:53.053Z,20.85
2023-04-20T15:06:19.842Z,20.25
2023-04-20T15:08:46.634Z,20.66
2023-04-20T15:11:13.329Z,20.77
2023-04-20T15:13:41.278Z,20.35
2023-04-20T15:16:10.677Z,20.76
2023-04-20T15:18:37.266Z,20.44
2023-04-20T15:21:04.169Z,19.59
2023-04-20T15:23:31.086Z,20.52
2023-04-20T15:25:57.677Z,20.23
2023-04-20T15:28:24.210Z,20.84
2023-04-20T15:30:50.874Z,20.92
2023-04-20T15:33:17.574Z,20.51
2023-04-20T15:35:44.232Z,20.36
2023-04-20T15:38:10.890Z,20.70
2023-04-20T15:40:38.813Z,20.96
2023-04-20T15:43:06.096Z,20.84
2023-04-20T15:45:32.912Z,21.21
2023-04-20T15:48:00.936Z,21.40
2023-04-20T15:50:27.652Z,21.42
2023-04-20T15:52:54.800Z,20.83
2023-04-20T15:55:22.229Z,21.22
2023-04-20T15:57:48.803Z,21.05
2023-04-20T16:00:15.834Z,21.27
2023-04-20T16:02:42.515Z,21.51
2023-04-20T16:05:12.198Z,20.97
2023-04-20T16:07:38.826Z,20.36
2023-04-20T16:10:07.234Z,20.60
2023-04-20T16:12:33.853Z,20.23
2023-04-20T16:15:02.129Z,20.35
2023-04-20T16:17:29.329Z,19.37
2023-04-20T16:19:56.006Z,19.60
2023-04-20T16:22:22.721Z,19.64
2023-04-20T16:24:49.289Z,19.87
2023-04-20T16:27:16.107Z,20.23
2023-04-20T16:29:43.086Z,19.38
2023-04-20T16:32:09.818Z,20.01
2023-04-20T16:34:36.395Z,20.10
2023-04-20T16:37:02.958Z,19.52
2023-04-20T16:39:29.531Z,19.60
2023-04-20T16:41:57.209Z,19.65
2023-04-20T16:44:23.825Z,18.71
2023-04-20T16:46:51.391Z,18.94
2023-04-20T16:49:18.207Z,19.07
2023-04-20T16:51:44.883Z,19.44
2023-04-20T16:54:12.807Z,19.71
2023-04-20T16:56:39.965Z,19.62
2023-04-20T16:59:06.691Z,19.00
2023-04-20T17:01:33.373Z,19.28
2023-04-20T17:04:00.105Z,19.33
2023-04-20T17:06:27.467Z,19.04
2023-04-20T17:08:55.993Z,18.84
2023-04-20T17:11:22.521Z,18.81
2023-04-20T17:13:49.203Z,19.36
2023-04-20T17:16:15.840Z,18.93
2023-04-20T17:18:42.464Z,18.59
2023-04-20T17:21:09.124Z,18.76
2023-04-20T17:23:35.988Z,18.28
2023-04-20T17:26:03.545Z,18.45
2023-04-20T17:28:30.565Z,18.25
2023-04-20T17:30:57.148Z,18.71
2023-04-20T17:33:23.731Z,18.80
2023-04-20T17:35:50.449Z,18.77
2023-04-20T17:38:16.997Z,18.96
2023-04-20T17:40:43.738Z,18.72
2023-04-20T17:43:10.364Z,18.51
2023-04-20T17:45:37.446Z,18.26
2023-04-20T17:48:04.358Z,18.54
2023-04-20T17:50:31.107Z,18.51
2023-04-20T17:52:57.705Z,18.08
2023-04-20T17:55:24.280Z,18.41
2023-04-20T17:57:51.028Z,18.12
2023-04-20T18:00:18.677Z,18.19
2023-04-20T18:02:45.409Z,18.08
2023-04-20T18:05:12.126Z,18.48
2023-04-20T18:07:38.715Z,17.94
2023-04-20T18:10:06.385Z,18.17
2023-04-20T18:12:33.628Z,18.67
2023-04-20T18:15:00.771Z,18.89
2023-04-20T18:17:27.436Z,18.80
2023-04-20T18:19:53.984Z,18.77
2023-04-20T18:22:20.607Z,18.97
2023-04-20T18:24:47.174Z,19.04
2023-04-20T18:27:13.764Z,18.99
2023-04-20T18:29:40.461Z,19.04
2023-04-20T18:32:07.086Z,18.77
2023-04-20T18:34:33.831Z,18.51
2023-04-20T18:37:00.482Z,18.50
2023-04-20T18:39:27.141Z,18.68
2023-04-20T18:41:53.720Z,18.77
2023-04-20T18:44:20.672Z,18.78
2023-04-20T18:46:47.544Z,18.42
2023-04-20T18:49:14.152Z,18.42
2023-04-20T18:51:40.985Z,18.54
2023-04-20T18:54:07.628Z,18.41
2023-04-20T18:56:34.220Z,18.53
2023-04-20T18:59:01.626Z,18.02
2023-04-20T19:01:28.632Z,18.34
2023-04-20T19:03:55.636Z,18.28
2023-04-20T19:06:22.522Z,18.52
2023-04-20T19:08:50.905Z,18.56
2023-04-20T19:11:17.507Z,18.23
2023-04-20T19:13:45.415Z,17.78
2023-04-20T19:16:12.649Z,18.16
2023-04-20T19:18:39.680Z,17.77
2023-04-20T19:21:06.521Z,18.28
2023-04-20T19:23:33.334Z,18.06
2023-04-20T19:25:59.992Z,17.88
2023-04-20T19:28:26.586Z,18.25
2023-04-20T19:33:28.481Z,18.20
2023-04-20T19:36:19.612Z,18.04
2023-04-20T19:39:11.399Z,17.97
2023-04-20T19:41:38.438Z,18.01
2023-04-20T19:44:06.328Z,17.79
2023-04-20T19:47:49.207Z,18.05
2023-04-20T19:50:49.880Z,18.29
2023-04-20T19:53:16.587Z,18.26
2023-04-20T19:55:43.161Z,18.27
2023-04-20T19:58:10.840Z,18.19
2023-04-20T20:00:38.818Z,18.11
2023-04-20T20:03:08.074Z,18.29
2023-04-20T20:22:01.538Z,17.75
2023-04-20T20:24:28.118Z,17.81
2023-04-20T20:26:54.745Z,17.64
2023-04-20T20:29:22.899Z,17.28
2023-04-20T20:31:49.562Z,17.20
2023-04-20T20:34:16.507Z,17.30
2023-04-20T20:36:53.293Z,17.23
2023-04-20T20:39:20.064Z,17.47
2023-04-20T20:41:47.659Z,17.50
2023-04-20T20:44:14.622Z,17.35
2023-04-20T20:47:34.202Z,17.41
2023-04-20T20:50:28.658Z,17.33
2023-04-20T20:52:55.424Z,17.15
2023-04-20T20:55:22.174Z,17.19
2023-04-20T20:57:48.796Z,17.19
2023-04-20T21:00:16.323Z,17.24
2023-04-20T21:02:43.231Z,17.23
2023-04-20T21:05:10.543Z,17.18
2023-04-20T21:07:37.269Z,17.11
2023-04-20T21:10:04.217Z,16.99
2023-04-20T21:12:30.884Z,16.95
2023-04-20T21:14:57.462Z,16.96
2023-04-20T21:17:26.811Z,17.12
2023-04-20T21:22:30.197Z,17.04
2023-04-20T21:24:56.820Z,16.53
2023-04-20T21:27:24.032Z,16.24
2023-04-20T21:29:50.625Z,16.58
2023-04-20T21:32:17.316Z,16.74
2023-04-20T21:34:59.231Z,16.84
2023-04-20T21:37:53.805Z,16.83
2023-04-20T21:40:30.566Z,16.87
2023-04-20T21:42:57.102Z,16.74
2023-04-20T21:45:23.750Z,16.67
2023-04-20T21:47:50.333Z,16.67
2023-04-20T21:50:17.016Z,16.57
2023-04-20T21:52:43.602Z,16.56
2023-04-20T21:55:10.532Z,16.41
2023-04-20T21:57:37.067Z,16.39
2023-04-20T22:00:04.236Z,16.30
2023-04-20T22:02:30.899Z,16.31
2023-04-20T22:04:57.989Z,16.40
2023-04-20T22:07:26.645Z,16.07
2023-04-20T22:09:53.350Z,16.15
2023-04-20T22:12:32.187Z,16.22
2023-04-20T22:15:06.938Z,15.77
2023-04-20T22:17:33.525Z,15.94
2023-04-20T22:20:00.222Z,16.06
2023-04-20T22:22:26.814Z,15.88
2023-04-20T22:24:53.400Z,15.74
2023-04-20T22:27:20.228Z,15.88
2023-04-20T22:29:46.785Z,15.54
2023-04-20T22:32:13.338Z,15.80
2023-04-20T22:34:39.876Z,15.72
2023-04-20T22:37:08.609Z,15.83
2023-04-20T22:39:35.659Z,15.79
2023-04-20T22:42:02.291Z,15.69
2023-04-20T22:44:28.842Z,15.57
2023-04-20T22:46:55.635Z,15.67
2023-04-20T22:49:23.542Z,15.64
2023-04-20T22:51:50.726Z,15.60
2023-04-20T22:54:30.659Z,15.72
2023-04-20T22:56:58.795Z,15.69
2023-04-20T22:59:25.411Z,15.65
2023-04-20T23:01:52.152Z,15.54
2023-04-20T23:04:40.169Z,15.38
2023-04-20T23:10:29.530Z,15.38
2023-04-20T23:12:56.199Z,15.47
2023-04-20T23:15:22.801Z,15.41
2023-04-20T23:17:50.694Z,15.44
2023-04-20T23:20:17.397Z,15.38
2023-04-20T23:22:44.060Z,15.38
2023-04-20T23:28:06.574Z,15.33
2023-04-20T23:30:33.246Z,15.35
2023-04-20T23:33:00.043Z,15.37
2023-04-20T23:36:01.012Z,15.34
2023-04-20T23:38:45.660Z,15.20
2023-04-20T23:41:14.594Z,15.32
2023-04-20T23:43:41.547Z,15.27
2023-04-20T23:46:08.745Z,15.26
2023-04-20T23:48:35.477Z,15.29
2023-04-20T23:51:02.272Z,15.16
2023-04-20T23:56:04.530Z,15.08
2023-04-20T23:58:31.499Z,15.21
